sensor_id;sensor_type;location;lat;lon;timestamp;P1;durP1;ratioP1;P2;durP2;ratioP2
12800;SDS011;6464;42.494;27.470;2024-02-21T00:01:01;0.30;;;0.30;;
12800;SDS011;6464;42.494;27.470;2024-02-21T00:03:32;0.30;;;0.30;;
12800;SDS011;6464;42.494;27.470;2024-02-21T00:06:00;0.23;;;0.23;;
12800;SDS011;6464;42.494;27.470;2024-02-21T00:08:28;0.27;;;0.27;;
12800;SDS011;6464;42.494;27.470;2024-02-21T00:10:56;0.30;;;0.30;;
12800;SDS011;6464;42.494;27.470;2024-02-21T00:13:25;0.30;;;0.30;;
12800;SDS011;6464;42.494;27.470;2024-02-21T00:15:55;0.20;;;0.20;;
12800;SDS011;6464;42.494;27.470;2024-02-21T00:18:26;0.20;;;0.20;;
12800;SDS011;6464;42.494;27.470;2024-02-21T00:20:55;0.20;;;0.20;;
12800;SDS011;6464;42.494;27.470;2024-02-21T00:23:23;0.37;;;0.37;;
12800;SDS011;6464;42.494;27.470;2024-02-21T00:25:49;0.40;;;0.40;;
12800;SDS011;6464;42.494;27.470;2024-02-21T00:28:15;0.30;;;0.30;;
12800;SDS011;6464;42.494;27.470;2024-02-21T00:30:42;0.20;;;0.20;;
12800;SDS011;6464;42.494;27.470;2024-02-21T00:33:09;0.20;;;0.20;;
12800;SDS011;6464;42.494;27.470;2024-02-21T00:35:36;0.10;;;0.10;;
12800;SDS011;6464;42.494;27.470;2024-02-21T00:38:10;0.20;;;0.20;;
12800;SDS011;6464;42.494;27.470;2024-02-21T00:40:37;0.30;;;0.30;;
12800;SDS011;6464;42.494;27.470;2024-02-21T00:43:05;0.20;;;0.20;;
12800;SDS011;6464;42.494;27.470;2024-02-21T00:45:32;0.10;;;0.10;;
12800;SDS011;6464;42.494;27.470;2024-02-21T00:48:00;0.00;;;0.00;;
12800;SDS011;6464;42.494;27.470;2024-02-21T00:50:29;0.13;;;0.13;;
12800;SDS011;6464;42.494;27.470;2024-02-21T00:52:56;0.10;;;0.10;;
12800;SDS011;6464;42.494;27.470;2024-02-21T00:55:25;0.10;;;0.10;;
12800;SDS011;6464;42.494;27.470;2024-02-21T00:57:54;0.20;;;0.20;;
12800;SDS011;6464;42.494;27.470;2024-02-21T04:00:19;0.00;;;0.00;;
12800;SDS011;6464;42.494;27.470;2024-02-21T04:02:46;0.00;;;0.00;;
12800;SDS011;6464;42.494;27.470;2024-02-21T04:05:15;0.00;;;0.00;;
12800;SDS011;6464;42.494;27.470;2024-02-21T04:07:42;0.00;;;0.00;;
12800;SDS011;6464;42.494;27.470;2024-02-21T04:10:09;0.00;;;0.00;;
12800;SDS011;6464;42.494;27.470;2024-02-21T04:12:37;0.00;;;0.00;;
12800;SDS011;6464;42.494;27.470;2024-02-21T04:15:07;0.00;;;0.00;;
12800;SDS011;6464;42.494;27.470;2024-02-21T04:17:39;0.00;;;0.00;;
12800;SDS011;6464;42.494;27.470;2024-02-21T04:20:06;0.00;;;0.00;;
12800;SDS011;6464;42.494;27.470;2024-02-21T04:22:40;0.00;;;0.00;;
12800;SDS011;6464;42.494;27.470;2024-02-21T04:25:07;0.00;;;0.00;;
12800;SDS011;6464;42.494;27.470;2024-02-21T04:27:35;0.00;;;0.00;;
12800;SDS011;6464;42.494;27.470;2024-02-21T04:30:01;0.00;;;0.00;;
12800;SDS011;6464;42.494;27.470;2024-02-21T04:43:08;0.00;;;0.00;;
12800;SDS011;6464;42.494;27.470;2024-02-21T04:48:16;0.00;;;0.00;;
12800;SDS011;6464;42.494;27.470;2024-02-21T04:50:45;0.00;;;0.00;;
12800;SDS011;6464;42.494;27.470;2024-02-21T04:53:21;0.00;;;0.00;;
12800;SDS011;6464;42.494;27.470;2024-02-21T04:55:51;0.00;;;0.00;;
12800;SDS011;6464;42.494;27.470;2024-02-21T04:58:37;0.00;;;0.00;;
12800;SDS011;6464;42.494;27.470;2024-02-21T05:01:21;0.00;;;0.00;;
12800;SDS011;6464;42.494;27.470;2024-02-21T05:07:12;0.00;;;0.00;;
12800;SDS011;6464;42.494;27.470;2024-02-21T05:09:58;0.00;;;0.00;;
12800;SDS011;6464;42.494;27.470;2024-02-21T05:12:25;0.00;;;0.00;;
12800;SDS011;6464;42.494;27.470;2024-02-21T05:14:54;0.00;;;0.00;;
12800;SDS011;6464;42.494;27.470;2024-02-21T05:17:21;0.00;;;0.00;;
12800;SDS011;6464;42.494;27.470;2024-02-21T05:19:48;0.00;;;0.00;;
12800;SDS011;6464;42.494;27.470;2024-02-21T05:22:15;0.00;;;0.00;;
12800;SDS011;6464;42.494;27.470;2024-02-21T05:24:42;0.00;;;0.00;;
12800;SDS011;6464;42.494;27.470;2024-02-21T05:27:09;0.00;;;0.00;;
12800;SDS011;6464;42.494;27.470;2024-02-21T05:29:36;0.00;;;0.00;;
12800;SDS011;6464;42.494;27.470;2024-02-21T05:32:05;0.00;;;0.00;;
12800;SDS011;6464;42.494;27.470;2024-02-21T05:34:34;0.00;;;0.00;;
12800;SDS011;6464;42.494;27.470;2024-02-21T05:37:01;0.00;;;0.00;;
12800;SDS011;6464;42.494;27.470;2024-02-21T05:39:28;0.00;;;0.00;;
12800;SDS011;6464;42.494;27.470;2024-02-21T05:41:55;0.00;;;0.00;;
12800;SDS011;6464;42.494;27.470;2024-02-21T05:44:22;0.00;;;0.00;;
12800;SDS011;6464;42.494;27.470;2024-02-21T05:46:49;0.00;;;0.00;;
12800;SDS011;6464;42.494;27.470;2024-02-21T05:49:17;0.00;;;0.00;;
12800;SDS011;6464;42.494;27.470;2024-02-21T05:51:44;0.00;;;0.00;;
12800;SDS011;6464;42.494;27.470;2024-02-21T05:54:12;0.10;;;0.10;;
12800;SDS011;6464;42.494;27.470;2024-02-21T05:56:39;0.20;;;0.20;;
12800;SDS011;6464;42.494;27.470;2024-02-21T05:59:06;0.10;;;0.10;;
12800;SDS011;6464;42.494;27.470;2024-02-21T06:01:33;0.10;;;0.10;;
12800;SDS011;6464;42.494;27.470;2024-02-21T06:04:00;0.10;;;0.10;;
12800;SDS011;6464;42.494;27.470;2024-02-21T06:06:29;0.10;;;0.10;;
12800;SDS011;6464;42.494;27.470;2024-02-21T06:08:56;0.10;;;0.10;;
12800;SDS011;6464;42.494;27.470;2024-02-21T06:11:24;0.00;;;0.00;;
12800;SDS011;6464;42.494;27.470;2024-02-21T06:13:51;0.10;;;0.10;;
12800;SDS011;6464;42.494;27.470;2024-02-21T06:16:17;0.10;;;0.10;;
12800;SDS011;6464;42.494;27.470;2024-02-21T06:18:44;0.10;;;0.10;;
12800;SDS011;6464;42.494;27.470;2024-02-21T06:21:11;0.10;;;0.10;;
12800;SDS011;6464;42.494;27.470;2024-02-21T06:23:40;0.10;;;0.10;;
12800;SDS011;6464;42.494;27.470;2024-02-21T06:26:09;0.10;;;0.10;;
12800;SDS011;6464;42.494;27.470;2024-02-21T06:28:36;0.00;;;0.00;;
12800;SDS011;6464;42.494;27.470;2024-02-21T06:31:03;0.00;;;0.00;;
12800;SDS011;6464;42.494;27.470;2024-02-21T06:33:30;0.10;;;0.10;;
12800;SDS011;6464;42.494;27.470;2024-02-21T06:35:57;0.03;;;0.03;;
12800;SDS011;6464;42.494;27.470;2024-02-21T06:38:24;0.10;;;0.10;;
12800;SDS011;6464;42.494;27.470;2024-02-21T06:40:52;0.10;;;0.10;;
12800;SDS011;6464;42.494;27.470;2024-02-21T06:43:20;0.10;;;0.10;;
12800;SDS011;6464;42.494;27.470;2024-02-21T06:45:47;0.10;;;0.10;;
12800;SDS011;6464;42.494;27.470;2024-02-21T06:48:16;0.10;;;0.10;;
12800;SDS011;6464;42.494;27.470;2024-02-21T06:50:43;0.10;;;0.10;;
12800;SDS011;6464;42.494;27.470;2024-02-21T06:53:10;0.10;;;0.10;;
12800;SDS011;6464;42.494;27.470;2024-02-21T06:55:37;0.10;;;0.10;;
12800;SDS011;6464;42.494;27.470;2024-02-21T06:58:05;0.20;;;0.20;;
12800;SDS011;6464;42.494;27.470;2024-02-21T07:00:36;0.30;;;0.30;;
12800;SDS011;6464;42.494;27.470;2024-02-21T07:03:03;0.30;;;0.30;;
12800;SDS011;6464;42.494;27.470;2024-02-21T07:05:30;0.50;;;0.50;;
12800;SDS011;6464;42.494;27.470;2024-02-21T07:07:57;0.60;;;0.60;;
12800;SDS011;6464;42.494;27.470;2024-02-21T07:10:24;0.90;;;0.90;;
12800;SDS011;6464;42.494;27.470;2024-02-21T07:12:53;1.40;;;1.40;;
12800;SDS011;6464;42.494;27.470;2024-02-21T07:15:21;1.10;;;1.10;;
12800;SDS011;6464;42.494;27.470;2024-02-21T07:17:52;0.70;;;0.70;;
12800;SDS011;6464;42.494;27.470;2024-02-21T07:20:18;0.40;;;0.40;;
12800;SDS011;6464;42.494;27.470;2024-02-21T07:22:45;0.50;;;0.50;;
12800;SDS011;6464;42.494;27.470;2024-02-21T07:25:12;0.50;;;0.50;;
12800;SDS011;6464;42.494;27.470;2024-02-21T07:27:39;0.50;;;0.50;;
12800;SDS011;6464;42.494;27.470;2024-02-21T07:30:07;0.40;;;0.40;;
12800;SDS011;6464;42.494;27.470;2024-02-21T07:32:35;0.30;;;0.30;;
12800;SDS011;6464;42.494;27.470;2024-02-21T07:35:03;0.40;;;0.40;;
12800;SDS011;6464;42.494;27.470;2024-02-21T07:37:30;0.30;;;0.30;;
12800;SDS011;6464;42.494;27.470;2024-02-21T07:39:57;0.33;;;0.33;;
12800;SDS011;6464;42.494;27.470;2024-02-21T07:42:24;0.40;;;0.40;;
12800;SDS011;6464;42.494;27.470;2024-02-21T07:44:51;0.40;;;0.40;;
12800;SDS011;6464;42.494;27.470;2024-02-21T07:47:18;0.40;;;0.40;;
12800;SDS011;6464;42.494;27.470;2024-02-21T07:49:46;0.60;;;0.60;;
12800;SDS011;6464;42.494;27.470;2024-02-21T07:52:14;0.67;;;0.67;;
12800;SDS011;6464;42.494;27.470;2024-02-21T07:54:40;0.60;;;0.60;;
12800;SDS011;6464;42.494;27.470;2024-02-21T07:57:07;0.30;;;0.30;;
12800;SDS011;6464;42.494;27.470;2024-02-21T07:59:34;0.30;;;0.30;;
12800;SDS011;6464;42.494;27.470;2024-02-21T08:02:01;0.40;;;0.40;;
12800;SDS011;6464;42.494;27.470;2024-02-21T08:04:32;0.77;;;0.77;;
12800;SDS011;6464;42.494;27.470;2024-02-21T08:07:03;1.50;;;1.50;;
12800;SDS011;6464;42.494;27.470;2024-02-21T08:09:30;0.90;;;0.90;;
12800;SDS011;6464;42.494;27.470;2024-02-21T08:11:57;1.40;;;1.40;;
12800;SDS011;6464;42.494;27.470;2024-02-21T08:14:24;2.17;;;2.17;;
12800;SDS011;6464;42.494;27.470;2024-02-21T08:16:51;1.30;;;1.30;;
12800;SDS011;6464;42.494;27.470;2024-02-21T08:19:18;1.50;;;1.50;;
12800;SDS011;6464;42.494;27.470;2024-02-21T08:21:45;1.50;;;1.50;;
12800;SDS011;6464;42.494;27.470;2024-02-21T08:24:14;1.00;;;1.00;;
12800;SDS011;6464;42.494;27.470;2024-02-21T08:26:41;1.80;;;1.80;;
12800;SDS011;6464;42.494;27.470;2024-02-21T08:29:09;1.80;;;1.80;;
12800;SDS011;6464;42.494;27.470;2024-02-21T08:31:36;1.90;;;1.90;;
12800;SDS011;6464;42.494;27.470;2024-02-21T08:34:03;2.27;;;2.27;;
12800;SDS011;6464;42.494;27.470;2024-02-21T08:36:30;2.00;;;2.00;;
12800;SDS011;6464;42.494;27.470;2024-02-21T08:38:57;2.40;;;2.40;;
12800;SDS011;6464;42.494;27.470;2024-02-21T08:41:26;1.40;;;1.40;;
12800;SDS011;6464;42.494;27.470;2024-02-21T08:43:53;1.23;;;1.23;;
12800;SDS011;6464;42.494;27.470;2024-02-21T08:46:20;1.03;;;1.03;;
12800;SDS011;6464;42.494;27.470;2024-02-21T08:48:47;1.30;;;1.30;;
12800;SDS011;6464;42.494;27.470;2024-02-21T08:51:14;2.37;;;2.37;;
12800;SDS011;6464;42.494;27.470;2024-02-21T08:53:40;3.33;;;3.33;;
12800;SDS011;6464;42.494;27.470;2024-02-21T08:56:07;3.60;;;3.60;;
12800;SDS011;6464;42.494;27.470;2024-02-21T08:58:36;2.83;;;2.83;;
12800;SDS011;6464;42.494;27.470;2024-02-21T09:01:03;1.90;;;1.90;;
12800;SDS011;6464;42.494;27.470;2024-02-21T09:03:31;1.60;;;1.60;;
12800;SDS011;6464;42.494;27.470;2024-02-21T09:05:58;1.70;;;1.70;;
12800;SDS011;6464;42.494;27.470;2024-02-21T09:08:24;1.80;;;1.80;;
12800;SDS011;6464;42.494;27.470;2024-02-21T09:11:02;1.47;;;1.47;;
12800;SDS011;6464;42.494;27.470;2024-02-21T09:13:29;1.60;;;1.60;;
12800;SDS011;6464;42.494;27.470;2024-02-21T09:15:58;2.30;;;2.30;;
12800;SDS011;6464;42.494;27.470;2024-02-21T09:18:25;3.47;;;3.47;;
12800;SDS011;6464;42.494;27.470;2024-02-21T09:20:51;4.00;;;3.90;;
12800;SDS011;6464;42.494;27.470;2024-02-21T09:23:18;5.10;;;5.00;;
12800;SDS011;6464;42.494;27.470;2024-02-21T09:25:45;5.80;;;5.70;;
12800;SDS011;6464;42.494;27.470;2024-02-21T09:28:12;5.90;;;5.80;;
12800;SDS011;6464;42.494;27.470;2024-02-21T09:30:39;5.20;;;5.10;;
12800;SDS011;6464;42.494;27.470;2024-02-21T09:33:07;5.10;;;5.00;;
12800;SDS011;6464;42.494;27.470;2024-02-21T09:35:34;5.00;;;4.90;;
12800;SDS011;6464;42.494;27.470;2024-02-21T09:38:01;5.13;;;5.03;;
12800;SDS011;6464;42.494;27.470;2024-02-21T09:40:29;5.10;;;5.00;;
12800;SDS011;6464;42.494;27.470;2024-02-21T09:42:59;5.90;;;5.80;;
12800;SDS011;6464;42.494;27.470;2024-02-21T09:45:29;5.70;;;5.60;;
12800;SDS011;6464;42.494;27.470;2024-02-21T09:47:59;7.50;;;7.30;;
12800;SDS011;6464;42.494;27.470;2024-02-21T09:50:31;7.65;;;7.45;;
12800;SDS011;6464;42.494;27.470;2024-02-21T09:52:59;7.60;;;7.40;;
12800;SDS011;6464;42.494;27.470;2024-02-21T09:55:27;7.80;;;7.60;;
12800;SDS011;6464;42.494;27.470;2024-02-21T09:57:57;7.65;;;7.45;;
12800;SDS011;6464;42.494;27.470;2024-02-21T10:00:24;7.10;;;6.90;;
12800;SDS011;6464;42.494;27.470;2024-02-21T10:02:52;6.60;;;6.40;;
12800;SDS011;6464;42.494;27.470;2024-02-21T10:05:19;5.70;;;5.60;;
12800;SDS011;6464;42.494;27.470;2024-02-21T10:07:47;5.53;;;5.43;;
12800;SDS011;6464;42.494;27.470;2024-02-21T10:10:15;6.37;;;6.17;;
12800;SDS011;6464;42.494;27.470;2024-02-21T10:12:48;5.80;;;5.70;;
12800;SDS011;6464;42.494;27.470;2024-02-21T10:15:19;5.95;;;5.85;;
12800;SDS011;6464;42.494;27.470;2024-02-21T10:17:46;5.60;;;5.50;;
12800;SDS011;6464;42.494;27.470;2024-02-21T10:20:14;5.50;;;5.40;;
12800;SDS011;6464;42.494;27.470;2024-02-21T10:22:41;5.43;;;5.33;;
12800;SDS011;6464;42.494;27.470;2024-02-21T10:25:10;5.60;;;5.50;;
12800;SDS011;6464;42.494;27.470;2024-02-21T10:27:37;5.40;;;5.30;;
12800;SDS011;6464;42.494;27.470;2024-02-21T10:30:05;5.80;;;5.70;;
12800;SDS011;6464;42.494;27.470;2024-02-21T10:32:32;5.80;;;5.70;;
12800;SDS011;6464;42.494;27.470;2024-02-21T10:35:02;6.00;;;5.90;;
12800;SDS011;6464;42.494;27.470;2024-02-21T10:37:30;6.50;;;6.30;;
12800;SDS011;6464;42.494;27.470;2024-02-21T10:39:57;5.90;;;5.80;;
12800;SDS011;6464;42.494;27.470;2024-02-21T10:42:26;5.80;;;5.70;;
12800;SDS011;6464;42.494;27.470;2024-02-21T10:44:55;5.80;;;5.70;;
12800;SDS011;6464;42.494;27.470;2024-02-21T10:47:26;5.90;;;5.80;;
12800;SDS011;6464;42.494;27.470;2024-02-21T10:49:57;5.65;;;5.55;;
12800;SDS011;6464;42.494;27.470;2024-02-21T10:52:32;5.40;;;5.30;;
12800;SDS011;6464;42.494;27.470;2024-02-21T10:55:07;6.13;;;6.00;;
12800;SDS011;6464;42.494;27.470;2024-02-21T10:57:37;6.60;;;6.40;;
12800;SDS011;6464;42.494;27.470;2024-02-21T11:00:05;6.65;;;6.45;;
12800;SDS011;6464;42.494;27.470;2024-02-21T11:02:33;6.40;;;6.20;;
12800;SDS011;6464;42.494;27.470;2024-02-21T11:05:01;6.55;;;6.35;;
12800;SDS011;6464;42.494;27.470;2024-02-21T11:07:29;6.30;;;6.10;;
12800;SDS011;6464;42.494;27.470;2024-02-21T11:09:59;6.28;;;6.07;;
12800;SDS011;6464;42.494;27.470;2024-02-21T11:12:32;7.05;;;6.85;;
12800;SDS011;6464;42.494;27.470;2024-02-21T11:15:06;6.40;;;6.20;;
12800;SDS011;6464;42.494;27.470;2024-02-21T11:17:33;6.07;;;5.95;;
12800;SDS011;6464;42.494;27.470;2024-02-21T11:20:10;6.20;;;6.05;;
12800;SDS011;6464;42.494;27.470;2024-02-21T11:22:41;6.15;;;6.00;;
12800;SDS011;6464;42.494;27.470;2024-02-21T16:42:18;4.80;;;4.70;;
12800;SDS011;6464;42.494;27.470;2024-02-21T16:44:45;4.70;;;4.60;;
12800;SDS011;6464;42.494;27.470;2024-02-21T16:47:13;4.97;;;4.87;;
12800;SDS011;6464;42.494;27.470;2024-02-21T16:49:42;4.70;;;4.60;;
12800;SDS011;6464;42.494;27.470;2024-02-21T16:52:09;4.70;;;4.60;;
12800;SDS011;6464;42.494;27.470;2024-02-21T16:54:35;4.60;;;4.50;;
12800;SDS011;6464;42.494;27.470;2024-02-21T16:57:17;4.50;;;4.40;;
12800;SDS011;6464;42.494;27.470;2024-02-21T16:59:57;4.80;;;4.70;;
12800;SDS011;6464;42.494;27.470;2024-02-21T17:02:24;4.20;;;4.10;;
12800;SDS011;6464;42.494;27.470;2024-02-21T17:04:51;3.90;;;3.80;;
12800;SDS011;6464;42.494;27.470;2024-02-21T17:07:20;3.60;;;3.60;;
12800;SDS011;6464;42.494;27.470;2024-02-21T17:09:47;4.20;;;4.10;;
12800;SDS011;6464;42.494;27.470;2024-02-21T17:12:13;3.90;;;3.80;;
12800;SDS011;6464;42.494;27.470;2024-02-21T17:14:40;4.50;;;4.40;;
12800;SDS011;6464;42.494;27.470;2024-02-21T17:17:09;4.57;;;4.47;;
12800;SDS011;6464;42.494;27.470;2024-02-21T17:19:35;4.80;;;4.70;;
12800;SDS011;6464;42.494;27.470;2024-02-21T17:22:02;4.10;;;4.00;;
12800;SDS011;6464;42.494;27.470;2024-02-21T17:24:30;4.20;;;4.10;;
12800;SDS011;6464;42.494;27.470;2024-02-21T17:26:57;3.70;;;3.70;;
12800;SDS011;6464;42.494;27.470;2024-02-21T17:29:24;4.50;;;4.40;;
12800;SDS011;6464;42.494;27.470;2024-02-21T17:31:52;4.50;;;4.40;;
12800;SDS011;6464;42.494;27.470;2024-02-21T17:34:20;4.50;;;4.40;;
12800;SDS011;6464;42.494;27.470;2024-02-21T17:36:47;4.90;;;4.80;;
12800;SDS011;6464;42.494;27.470;2024-02-21T17:39:14;4.90;;;4.80;;
12800;SDS011;6464;42.494;27.470;2024-02-21T17:41:43;5.30;;;5.20;;
12800;SDS011;6464;42.494;27.470;2024-02-21T17:44:10;5.57;;;5.47;;
12800;SDS011;6464;42.494;27.470;2024-02-21T17:46:40;5.03;;;4.93;;
12800;SDS011;6464;42.494;27.470;2024-02-21T17:49:07;4.70;;;4.60;;
12800;SDS011;6464;42.494;27.470;2024-02-21T17:51:35;3.50;;;3.50;;
12800;SDS011;6464;42.494;27.470;2024-02-21T17:54:02;2.10;;;2.10;;
12800;SDS011;6464;42.494;27.470;2024-02-21T17:56:29;1.90;;;1.90;;
12800;SDS011;6464;42.494;27.470;2024-02-21T17:58:57;1.67;;;1.67;;
12800;SDS011;6464;42.494;27.470;2024-02-21T18:01:44;1.47;;;1.47;;
12800;SDS011;6464;42.494;27.470;2024-02-21T18:04:12;1.50;;;1.50;;
12800;SDS011;6464;42.494;27.470;2024-02-21T18:06:46;1.40;;;1.40;;
12800;SDS011;6464;42.494;27.470;2024-02-21T18:09:14;0.70;;;0.70;;
12800;SDS011;6464;42.494;27.470;2024-02-21T18:11:42;0.80;;;0.80;;
12800;SDS011;6464;42.494;27.470;2024-02-21T18:14:10;0.40;;;0.40;;
12800;SDS011;6464;42.494;27.470;2024-02-21T18:16:41;0.40;;;0.40;;
12800;SDS011;6464;42.494;27.470;2024-02-21T18:19:10;0.40;;;0.40;;
12800;SDS011;6464;42.494;27.470;2024-02-21T18:21:39;0.30;;;0.30;;
12800;SDS011;6464;42.494;27.470;2024-02-21T23:19:10;1.00;;;1.00;;
12800;SDS011;6464;42.494;27.470;2024-02-21T23:21:43;1.00;;;1.00;;
12800;SDS011;6464;42.494;27.470;2024-02-21T23:24:24;1.00;;;1.00;;
12800;SDS011;6464;42.494;27.470;2024-02-21T23:26:52;1.00;;;1.00;;
12800;SDS011;6464;42.494;27.470;2024-02-21T23:29:33;1.00;;;1.00;;
12800;SDS011;6464;42.494;27.470;2024-02-21T23:32:13;0.80;;;0.80;;
12800;SDS011;6464;42.494;27.470;2024-02-21T23:37:54;0.90;;;0.90;;
12800;SDS011;6464;42.494;27.470;2024-02-21T23:40:36;1.40;;;1.40;;
12800;SDS011;6464;42.494;27.470;2024-02-21T23:43:16;1.70;;;1.70;;
12800;SDS011;6464;42.494;27.470;2024-02-21T23:45:57;2.10;;;2.10;;
12800;SDS011;6464;42.494;27.470;2024-02-21T23:51:13;2.57;;;2.57;;
